createdAt,value
2023-05-24T00:02:21.360Z,74.67
2023-05-24T00:04:49.607Z,74.44
2023-05-24T00:07:16.749Z,74.67
2023-05-24T00:09:43.541Z,74.62
2023-05-24T00:12:10.995Z,74.70
2023-05-24T00:14:38.039Z,74.44
2023-05-24T00:17:04.982Z,74.68
2023-05-24T00:19:31.755Z,74.95
2023-05-24T00:21:58.740Z,75.22
2023-05-24T00:24:25.803Z,74.82
2023-05-24T00:26:52.684Z,74.66
2023-05-24T00:29:19.484Z,75.14
2023-05-24T00:31:46.454Z,75.30
2023-05-24T00:34:13.382Z,75.25
2023-05-24T00:36:40.221Z,75.00
2023-05-24T00:39:07.125Z,75.11
2023-05-24T00:41:34.100Z,75.46
2023-05-24T00:44:00.978Z,75.30
2023-05-24T00:46:30.780Z,74.84
2023-05-24T00:48:58.467Z,75.35
2023-05-24T00:51:29.465Z,75.26
2023-05-24T00:53:56.568Z,75.29
2023-05-24T00:56:23.972Z,75.72
2023-05-24T00:58:54.878Z,75.61
2023-05-24T01:01:25.959Z,75.78
2023-05-24T01:03:57.514Z,75.72
2023-05-24T01:06:27.272Z,75.91
2023-05-24T01:09:09.487Z,75.88
2023-05-24T01:12:08.478Z,75.51
2023-05-24T01:14:44.832Z,76.15
2023-05-24T01:17:50.628Z,76.04
2023-05-24T01:20:19.801Z,76.49
2023-05-24T01:22:52.982Z,76.42
2023-05-24T01:25:44.571Z,76.45
2023-05-24T01:28:12.582Z,76.54
2023-05-24T01:30:43.578Z,76.51
2023-05-24T01:33:11.557Z,76.78
2023-05-24T01:35:41.455Z,76.84
2023-05-24T01:38:11.215Z,77.13
2023-05-24T01:40:40.510Z,76.78
2023-05-24T01:43:16.117Z,76.75
2023-05-24T01:45:55.530Z,76.64
2023-05-24T01:48:56.270Z,77.09
2023-05-24T01:51:26.602Z,76.97
2023-05-24T01:53:57.002Z,77.47
2023-05-24T01:56:26.806Z,77.51
2023-05-24T01:58:55.556Z,77.28
2023-05-24T02:01:23.642Z,77.23
2023-05-24T02:03:51.388Z,77.90
2023-05-24T02:06:18.251Z,77.51
2023-05-24T02:08:45.079Z,77.58
2023-05-24T02:11:11.966Z,77.80
2023-05-24T02:13:38.725Z,77.89
2023-05-24T02:16:06.615Z,77.79
2023-05-24T02:18:35.007Z,78.28
2023-05-24T02:21:02.786Z,77.99
2023-05-24T02:23:29.771Z,77.90
2023-05-24T02:25:56.765Z,77.82
2023-05-24T02:28:23.695Z,78.40
2023-05-24T02:30:51.483Z,78.57
2023-05-24T02:33:18.396Z,78.63
2023-05-24T02:35:45.302Z,78.62
2023-05-24T02:38:12.249Z,78.82
2023-05-24T02:40:39.052Z,78.36
2023-05-24T02:43:06.170Z,78.33
2023-05-24T02:45:32.957Z,77.98
2023-05-24T02:47:59.863Z,78.17
2023-05-24T02:50:26.728Z,78.12
2023-05-24T02:52:53.751Z,78.40
2023-05-24T02:55:20.676Z,78.39
2023-05-24T02:57:48.304Z,78.52
2023-05-24T03:00:15.946Z,78.58
2023-05-24T03:02:42.907Z,78.37
2023-05-24T03:05:09.988Z,78.31
2023-05-24T03:07:36.890Z,78.50
2023-05-24T03:10:03.929Z,78.46
2023-05-24T03:12:30.824Z,78.49
2023-05-24T03:14:57.607Z,78.63
2023-05-24T03:17:24.597Z,78.46
2023-05-24T03:19:52.760Z,78.36
2023-05-24T03:22:20.163Z,78.45
2023-05-24T03:24:47.371Z,78.92
2023-05-24T03:27:14.360Z,78.67
2023-05-24T03:29:41.193Z,78.47
2023-05-24T03:32:08.046Z,78.56
2023-05-24T03:34:34.897Z,78.86
2023-05-24T03:37:01.680Z,78.59
2023-05-24T03:39:28.526Z,78.94
2023-05-24T03:41:55.406Z,78.50
2023-05-24T03:44:22.345Z,78.68
2023-05-24T03:46:49.167Z,79.07
2023-05-24T03:49:16.028Z,78.91
2023-05-24T03:51:42.987Z,79.42
2023-05-24T03:54:10.029Z,79.69
2023-05-24T03:56:37.429Z,79.49
2023-05-24T03:59:04.499Z,79.36
2023-05-24T04:01:34.670Z,79.27
2023-05-24T04:04:02.940Z,79.49
2023-05-24T04:06:30.427Z,79.64
2023-05-24T04:08:58.505Z,78.98
2023-05-24T04:11:29.157Z,78.76
2023-05-24T04:13:57.820Z,78.41
2023-05-24T04:16:26.539Z,78.60
2023-05-24T04:18:56.973Z,78.34
2023-05-24T04:21:24.228Z,78.26
2023-05-24T04:23:51.225Z,78.13
2023-05-24T04:26:18.496Z,77.87
2023-05-24T04:28:48.767Z,77.90
2023-05-24T04:31:16.722Z,77.61
2023-05-24T04:33:43.786Z,77.41
2023-05-24T04:36:11.764Z,77.48
2023-05-24T04:38:39.833Z,79.03
2023-05-24T04:41:06.885Z,76.40
2023-05-24T04:43:37.359Z,73.86
2023-05-24T04:46:05.406Z,70.36
2023-05-24T04:48:33.473Z,68.85
2023-05-24T04:51:00.694Z,67.36
2023-05-24T04:53:28.001Z,64.43
2023-05-24T04:55:54.991Z,63.47
2023-05-24T04:58:21.878Z,62.76
2023-05-24T05:00:49.243Z,63.66
2023-05-24T05:03:16.517Z,63.71
2023-05-24T05:05:43.535Z,63.40
2023-05-24T05:08:10.362Z,65.35
2023-05-24T05:10:37.673Z,62.30
2023-05-24T05:13:04.828Z,61.32
2023-05-24T05:15:31.650Z,61.13
2023-05-24T05:17:58.596Z,61.73
2023-05-24T05:20:26.157Z,62.96
2023-05-24T05:22:53.148Z,64.82
2023-05-24T05:25:20.278Z,66.07
2023-05-24T05:27:47.132Z,66.50
2023-05-24T05:30:14.340Z,67.10
2023-05-24T05:32:41.540Z,68.23
2023-05-24T05:35:09.018Z,65.88
2023-05-24T05:37:35.902Z,64.84
2023-05-24T05:40:04.208Z,61.46
2023-05-24T05:42:30.997Z,60.88
2023-05-24T05:44:57.999Z,62.46
2023-05-24T05:47:24.806Z,63.54
2023-05-24T05:49:51.756Z,62.77
2023-05-24T05:52:18.690Z,62.48
2023-05-24T05:54:45.737Z,59.73
2023-05-24T05:57:13.123Z,60.49
2023-05-24T05:59:39.978Z,59.01
2023-05-24T06:02:07.278Z,56.44
2023-05-24T06:04:34.840Z,56.77
2023-05-24T06:07:01.822Z,55.22
2023-05-24T06:09:28.676Z,57.11
2023-05-24T06:11:55.773Z,56.52
2023-05-24T06:14:25.363Z,56.42
2023-05-24T06:16:54.801Z,56.63
2023-05-24T06:19:22.348Z,57.22
2023-05-24T06:21:50.827Z,58.04
2023-05-24T06:24:21.780Z,58.11
2023-05-24T06:26:50.759Z,59.92
2023-05-24T06:29:20.612Z,59.66
2023-05-24T06:31:48.939Z,59.06
2023-05-24T06:34:21.697Z,59.55
2023-05-24T06:36:51.311Z,59.81
2023-05-24T06:39:19.368Z,60.63
2023-05-24T06:41:47.453Z,60.66
2023-05-24T06:44:14.675Z,61.78
2023-05-24T06:46:41.938Z,61.06
2023-05-24T06:49:09.070Z,61.90
2023-05-24T06:51:36.743Z,61.74
2023-05-24T06:54:04.309Z,60.36
2023-05-24T06:56:31.124Z,60.38
2023-05-24T06:58:59.903Z,60.88
2023-05-24T07:01:27.787Z,60.88
2023-05-24T07:03:54.959Z,60.50
2023-05-24T07:06:22.132Z,60.93
2023-05-24T07:08:49.052Z,61.01
2023-05-24T07:11:16.217Z,61.03
2023-05-24T07:13:43.073Z,60.85
2023-05-24T07:16:10.134Z,60.19
2023-05-24T07:18:37.229Z,60.59
2023-05-24T07:21:04.172Z,60.47
2023-05-24T07:23:31.409Z,61.29
2023-05-24T07:25:58.331Z,60.05
2023-05-24T07:28:25.250Z,59.24
2023-05-24T07:30:52.337Z,59.85
2023-05-24T07:33:19.631Z,60.39
2023-05-24T07:35:51.545Z,61.29
2023-05-24T07:38:19.104Z,61.66
2023-05-24T07:40:46.025Z,61.22
2023-05-24T07:43:13.054Z,61.22
2023-05-24T07:45:40.159Z,60.43
2023-05-24T07:48:07.311Z,61.47
2023-05-24T07:50:34.243Z,59.59
2023-05-24T07:53:01.150Z,61.54
2023-05-24T07:55:28.614Z,60.65
2023-05-24T07:57:56.803Z,61.67
2023-05-24T08:00:23.783Z,59.87
2023-05-24T08:02:51.073Z,59.20
2023-05-24T08:05:18.471Z,56.79
2023-05-24T08:07:45.849Z,56.80
2023-05-24T08:10:14.000Z,56.95
2023-05-24T08:12:42.405Z,57.27
2023-05-24T08:15:09.693Z,58.34
2023-05-24T08:17:38.372Z,58.15
2023-05-24T08:20:10.022Z,58.47
2023-05-24T08:22:37.966Z,58.55
2023-05-24T08:25:06.586Z,59.40
2023-05-24T08:27:33.896Z,59.36
2023-05-24T08:30:00.930Z,59.58
2023-05-24T08:32:27.795Z,57.09
2023-05-24T08:35:03.495Z,57.58
2023-05-24T08:37:34.225Z,55.75
2023-05-24T08:40:01.260Z,55.17
2023-05-24T08:42:30.960Z,52.50
2023-05-24T08:45:09.772Z,51.26
2023-05-24T08:47:37.430Z,51.89
2023-05-24T08:50:06.516Z,52.78
2023-05-24T08:52:33.991Z,52.44
2023-05-24T08:55:01.841Z,53.09
2023-05-24T08:57:30.890Z,50.43
2023-05-24T08:59:58.029Z,52.55
2023-05-24T09:02:25.104Z,51.33
2023-05-24T09:04:53.854Z,50.90
2023-05-24T09:07:25.573Z,52.92
2023-05-24T09:10:05.822Z,53.93
2023-05-24T09:12:38.280Z,55.01
2023-05-24T09:15:07.916Z,52.90
2023-05-24T09:17:36.153Z,54.18
2023-05-24T09:20:07.210Z,53.12
2023-05-24T09:22:36.917Z,51.98
2023-05-24T09:25:06.623Z,53.11
2023-05-24T09:27:35.191Z,53.77
2023-05-24T09:30:05.616Z,52.92
2023-05-24T09:32:33.438Z,51.64
2023-05-24T09:35:00.441Z,54.91
2023-05-24T09:37:32.804Z,52.71
2023-05-24T09:40:00.546Z,51.62
2023-05-24T09:42:28.991Z,51.78
2023-05-24T09:45:02.850Z,54.00
2023-05-24T09:47:30.828Z,52.53
2023-05-24T09:49:58.176Z,54.31
2023-05-24T09:52:25.329Z,55.20
2023-05-24T09:54:52.633Z,53.70
2023-05-24T09:57:22.540Z,54.07
2023-05-24T09:59:50.341Z,52.99
2023-05-24T10:02:20.569Z,52.68
2023-05-24T10:04:48.182Z,51.48
2023-05-24T10:07:16.536Z,53.38
2023-05-24T10:09:45.026Z,52.58
2023-05-24T10:12:11.893Z,51.98
2023-05-24T10:14:39.320Z,51.87
2023-05-24T10:17:07.307Z,52.39
2023-05-24T10:19:35.947Z,53.12
2023-05-24T10:22:10.064Z,53.71
2023-05-24T10:24:41.282Z,52.57
2023-05-24T10:27:17.715Z,52.14
2023-05-24T10:30:14.236Z,53.49
2023-05-24T10:32:43.782Z,51.49
2023-05-24T10:35:15.205Z,51.46
2023-05-24T10:37:43.038Z,51.22
2023-05-24T10:40:25.396Z,52.10
2023-05-24T10:42:54.545Z,52.19
2023-05-24T10:45:37.444Z,52.51
2023-05-24T10:48:13.842Z,53.11
2023-05-24T10:50:42.366Z,52.56
2023-05-24T10:53:22.465Z,50.55
2023-05-24T10:55:53.414Z,52.36
2023-05-24T10:58:21.028Z,52.21
2023-05-24T11:00:52.251Z,51.98
2023-05-24T11:03:24.813Z,50.22
2023-05-24T11:05:51.935Z,49.51
2023-05-24T11:08:26.050Z,50.81
2023-05-24T11:11:28.696Z,49.84
2023-05-24T11:14:00.775Z,49.41
2023-05-24T11:16:39.502Z,50.56
2023-05-24T11:19:20.163Z,50.92
2023-05-24T11:21:49.012Z,50.77
2023-05-24T11:24:20.026Z,49.84
2023-05-24T11:26:47.255Z,50.36
2023-05-24T11:29:18.584Z,49.83
2023-05-24T11:31:49.679Z,49.70
2023-05-24T11:34:17.581Z,50.12
2023-05-24T11:36:45.557Z,49.51
2023-05-24T11:39:14.190Z,49.56
2023-05-24T11:41:41.411Z,48.30
2023-05-24T11:44:09.358Z,49.98
2023-05-24T11:46:36.978Z,50.36
2023-05-24T11:49:04.641Z,47.45
2023-05-24T11:51:33.994Z,47.93
2023-05-24T11:54:01.437Z,48.30
2023-05-24T11:56:33.205Z,48.76
2023-05-24T11:59:24.914Z,48.96
2023-05-24T12:02:00.342Z,47.77
2023-05-24T12:04:29.470Z,45.50
2023-05-24T12:06:57.280Z,48.78
2023-05-24T12:09:24.943Z,50.17
2023-05-24T12:11:52.888Z,48.92
2023-05-24T12:14:33.665Z,48.54
2023-05-24T12:17:03.903Z,49.25
2023-05-24T12:19:37.386Z,47.93
2023-05-24T12:22:07.267Z,47.81
2023-05-24T12:24:35.526Z,47.44
2023-05-24T12:27:08.049Z,47.46
2023-05-24T12:29:40.955Z,48.16
2023-05-24T12:32:14.051Z,49.76
2023-05-24T12:34:43.378Z,47.71
2023-05-24T12:37:13.158Z,48.13
2023-05-24T12:39:43.335Z,49.47
2023-05-24T12:42:12.530Z,49.60
2023-05-24T12:44:40.100Z,47.98
2023-05-24T12:47:08.986Z,49.22
2023-05-24T12:49:36.935Z,48.66
2023-05-24T12:52:04.404Z,48.49
2023-05-24T12:54:31.545Z,48.17
2023-05-24T12:57:03.506Z,47.65
2023-05-24T12:59:30.734Z,49.86
2023-05-24T13:01:58.194Z,47.42
2023-05-24T13:04:27.730Z,47.27
2023-05-24T13:06:55.217Z,47.60
2023-05-24T13:09:23.947Z,46.56
2023-05-24T13:11:52.599Z,48.46
2023-05-24T13:14:20.280Z,47.76
2023-05-24T13:16:47.760Z,47.54
2023-05-24T13:19:14.879Z,48.05
2023-05-24T13:21:41.797Z,48.59
2023-05-24T13:24:09.184Z,46.55
2023-05-24T13:26:37.709Z,47.40
2023-05-24T13:31:38.404Z,47.35
2023-05-24T13:34:05.741Z,48.49
2023-05-24T13:36:33.137Z,48.19
2023-05-24T13:41:31.161Z,49.88
2023-05-24T13:43:58.108Z,50.12
2023-05-24T13:46:25.300Z,48.93
2023-05-24T13:48:52.574Z,47.52
2023-05-24T13:51:20.158Z,48.85
2023-05-24T13:53:48.163Z,49.95
2023-05-24T13:56:16.386Z,49.19
2023-05-24T13:58:43.332Z,49.31
2023-05-24T14:01:11.450Z,49.28
2023-05-24T14:03:40.423Z,48.75
2023-05-24T14:06:08.632Z,49.48
2023-05-24T14:08:36.182Z,48.64
2023-05-24T14:11:03.275Z,49.27
2023-05-24T14:16:00.281Z,48.84
2023-05-24T14:18:27.223Z,47.89
2023-05-24T14:20:54.227Z,47.35
2023-05-24T14:23:21.293Z,46.68
2023-05-24T14:25:52.104Z,48.25
2023-05-24T14:28:20.725Z,47.29
2023-05-24T14:30:47.746Z,47.55
2023-05-24T14:33:14.727Z,47.96
2023-05-24T14:35:42.137Z,47.64
2023-05-24T14:38:11.081Z,49.28
2023-05-24T14:40:40.105Z,48.69
2023-05-24T14:43:10.413Z,49.07
2023-05-24T14:45:42.333Z,48.76
2023-05-24T14:48:12.009Z,49.28
2023-05-24T14:50:40.889Z,48.56
2023-05-24T14:53:15.064Z,50.58
2023-05-24T14:55:44.052Z,51.34
2023-05-24T14:58:12.423Z,49.70
2023-05-24T15:00:40.251Z,50.45
2023-05-24T15:03:13.004Z,48.26
2023-05-24T15:05:41.593Z,47.95
2023-05-24T15:08:09.789Z,48.47
2023-05-24T15:10:39.207Z,47.25
2023-05-24T15:13:06.887Z,46.72
2023-05-24T15:15:34.043Z,47.90
2023-05-24T15:18:01.072Z,48.02
2023-05-24T15:20:28.302Z,46.80
2023-05-24T15:22:55.687Z,48.41
2023-05-24T15:25:22.762Z,48.46
2023-05-24T15:27:49.753Z,48.09
2023-05-24T15:30:19.319Z,48.98
2023-05-24T15:32:46.801Z,49.29
2023-05-24T15:35:14.364Z,48.74
2023-05-24T15:37:42.196Z,47.90
2023-05-24T15:40:13.670Z,48.03
2023-05-24T15:42:40.897Z,47.98
2023-05-24T15:45:08.452Z,49.08
2023-05-24T15:47:40.026Z,49.28
2023-05-24T15:50:08.732Z,50.38
2023-05-24T15:52:36.388Z,50.27
2023-05-24T15:55:03.668Z,50.68
2023-05-24T15:57:31.226Z,50.42
2023-05-24T15:59:58.100Z,50.70
2023-05-24T16:02:25.149Z,51.24
2023-05-24T16:04:52.082Z,51.59
2023-05-24T16:07:19.761Z,49.65
2023-05-24T16:09:47.111Z,50.43
2023-05-24T16:12:13.974Z,51.82
2023-05-24T16:14:41.121Z,51.45
2023-05-24T16:17:08.230Z,52.10
2023-05-24T16:19:35.452Z,52.53
2023-05-24T16:22:02.523Z,52.97
2023-05-24T16:24:29.510Z,54.45
2023-05-24T16:26:59.335Z,53.98
2023-05-24T16:29:26.888Z,54.18
2023-05-24T16:31:53.985Z,54.41
2023-05-24T16:34:23.736Z,55.37
2023-05-24T16:36:50.780Z,55.29
2023-05-24T16:39:17.785Z,56.06
2023-05-24T16:41:44.852Z,55.38
2023-05-24T16:44:17.694Z,56.17
2023-05-24T16:46:45.629Z,56.50
2023-05-24T16:49:13.359Z,56.37
2023-05-24T16:51:40.780Z,56.82
2023-05-24T16:54:09.205Z,56.53
2023-05-24T16:56:38.174Z,55.94
2023-05-24T16:59:05.472Z,56.74
2023-05-24T17:01:32.585Z,55.65
2023-05-24T17:03:59.669Z,56.27
2023-05-24T17:06:26.586Z,56.29
2023-05-24T17:08:53.455Z,56.85
2023-05-24T17:11:21.073Z,56.60
2023-05-24T17:13:48.021Z,56.37
2023-05-24T17:16:15.360Z,57.01
2023-05-24T17:18:42.286Z,56.27
2023-05-24T17:21:09.603Z,57.00
2023-05-24T17:23:39.924Z,56.70
2023-05-24T17:26:08.366Z,57.56
2023-05-24T17:28:36.623Z,57.18
2023-05-24T17:31:03.979Z,57.33
2023-05-24T17:33:31.708Z,57.30
2023-05-24T17:35:58.726Z,57.50
2023-05-24T17:38:25.929Z,57.48
2023-05-24T17:40:59.676Z,58.05
2023-05-24T17:43:32.936Z,58.06
2023-05-24T17:46:06.942Z,58.04
2023-05-24T17:48:36.100Z,58.53
2023-05-24T17:51:06.020Z,58.86
2023-05-24T17:53:35.015Z,59.16
2023-05-24T17:56:03.452Z,59.37
2023-05-24T17:58:36.987Z,59.30
2023-05-24T18:01:09.033Z,59.49
2023-05-24T18:03:37.490Z,59.65
2023-05-24T18:06:07.026Z,59.92
2023-05-24T18:08:36.334Z,60.12
2023-05-24T18:11:08.514Z,60.73
2023-05-24T18:13:39.550Z,61.02
2023-05-24T18:16:07.259Z,61.19
2023-05-24T18:18:34.757Z,61.13
2023-05-24T18:21:01.745Z,61.31
2023-05-24T18:23:28.707Z,61.26
2023-05-24T18:26:00.875Z,61.32
2023-05-24T18:28:29.158Z,61.48
2023-05-24T18:30:56.423Z,61.40
2023-05-24T18:33:23.549Z,61.50
2023-05-24T18:35:50.751Z,61.64
2023-05-24T18:38:17.783Z,61.62
2023-05-24T18:40:44.747Z,61.61
2023-05-24T18:43:11.762Z,61.93
2023-05-24T18:45:38.838Z,62.07
2023-05-24T18:48:06.469Z,62.31
2023-05-24T18:50:33.793Z,62.38
2023-05-24T18:53:00.812Z,62.05
2023-05-24T18:55:28.585Z,62.43
2023-05-24T18:57:55.686Z,62.52
2023-05-24T19:00:25.475Z,62.25
2023-05-24T19:02:52.620Z,62.48
2023-05-24T19:05:20.039Z,63.13
2023-05-24T19:07:47.248Z,62.79
2023-05-24T19:10:14.196Z,63.31
2023-05-24T19:12:41.206Z,63.36
2023-05-24T19:15:08.737Z,63.57
2023-05-24T19:17:35.806Z,63.46
2023-05-24T19:20:03.054Z,63.84
2023-05-24T19:22:30.191Z,64.13
2023-05-24T19:24:57.295Z,64.03
2023-05-24T19:27:24.836Z,63.99
2023-05-24T19:29:51.803Z,64.29
2023-05-24T19:32:20.547Z,64.54
2023-05-24T19:34:47.637Z,64.76
2023-05-24T19:37:15.955Z,65.20
2023-05-24T19:39:42.984Z,64.72
2023-05-24T19:42:11.980Z,65.15
2023-05-24T19:44:38.867Z,65.26
2023-05-24T19:47:06.013Z,65.74
2023-05-24T19:49:32.822Z,65.87
2023-05-24T19:51:59.701Z,66.16
2023-05-24T19:54:26.660Z,65.92
2023-05-24T19:56:56.065Z,66.24
2023-05-24T19:59:23.009Z,66.40
2023-05-24T20:01:49.849Z,66.72
2023-05-24T20:04:16.830Z,66.82
2023-05-24T20:06:43.738Z,66.74
2023-05-24T20:09:10.765Z,67.20
2023-05-24T20:11:37.707Z,67.20
2023-05-24T20:14:04.724Z,67.26
2023-05-24T20:16:31.744Z,67.11
2023-05-24T20:18:58.869Z,67.55
2023-05-24T20:21:25.895Z,67.96
2023-05-24T20:23:57.943Z,67.52
2023-05-24T20:26:26.317Z,67.75
2023-05-24T20:28:53.439Z,67.65
2023-05-24T20:31:20.513Z,68.15
2023-05-24T20:33:47.574Z,68.12
2023-05-24T20:36:15.283Z,67.56
2023-05-24T20:38:42.245Z,67.57
2023-05-24T20:41:09.280Z,67.64
2023-05-24T20:43:36.248Z,68.09
2023-05-24T20:46:03.180Z,67.95
2023-05-24T20:48:30.123Z,68.23
2023-05-24T20:50:57.676Z,68.69
2023-05-24T20:53:24.719Z,68.64
2023-05-24T20:55:51.636Z,68.96
2023-05-24T20:58:18.630Z,68.70
2023-05-24T21:00:45.962Z,69.43
2023-05-24T21:03:13.190Z,70.02
2023-05-24T21:05:40.550Z,69.98
2023-05-24T21:08:07.565Z,69.52
2023-05-24T21:10:34.523Z,69.92
2023-05-24T21:13:01.322Z,69.94
2023-05-24T21:15:28.183Z,69.95
2023-05-24T21:17:55.146Z,70.51
2023-05-24T21:20:22.291Z,69.88
2023-05-24T21:22:49.277Z,70.39
2023-05-24T21:25:16.150Z,70.53
2023-05-24T21:27:42.994Z,70.64
2023-05-24T21:30:10.160Z,71.14
2023-05-24T21:32:37.081Z,71.46
2023-05-24T21:35:04.143Z,71.97
2023-05-24T21:37:31.019Z,71.91
2023-05-24T21:39:57.927Z,71.82
2023-05-24T21:42:24.772Z,71.26
2023-05-24T21:44:51.670Z,70.73
2023-05-24T21:47:18.516Z,70.36
2023-05-24T21:49:45.610Z,71.18
2023-05-24T21:52:12.447Z,71.22
2023-05-24T21:54:39.221Z,70.70
2023-05-24T21:57:07.430Z,70.91
2023-05-24T21:59:34.351Z,71.51
2023-05-24T22:02:01.489Z,71.59
2023-05-24T22:04:28.511Z,72.30
2023-05-24T22:06:55.572Z,71.93
2023-05-24T22:09:22.499Z,71.91
2023-05-24T22:11:49.509Z,72.16
2023-05-24T22:14:16.410Z,72.38
2023-05-24T22:16:43.321Z,72.07
2023-05-24T22:19:12.286Z,72.54
2023-05-24T22:21:41.952Z,72.91
2023-05-24T22:24:12.824Z,73.06
2023-05-24T22:26:41.823Z,72.83
2023-05-24T22:29:08.686Z,73.22
2023-05-24T22:31:36.434Z,73.29
2023-05-24T22:34:03.617Z,73.61
2023-05-24T22:36:34.970Z,73.94
2023-05-24T22:39:02.165Z,74.30
2023-05-24T22:41:29.054Z,74.07
2023-05-24T22:43:57.466Z,73.91
2023-05-24T22:46:24.829Z,73.86
2023-05-24T22:48:56.863Z,73.58
2023-05-24T22:51:24.627Z,73.70
2023-05-24T22:53:52.919Z,73.50
2023-05-24T22:56:19.908Z,73.66
2023-05-24T22:58:46.969Z,73.52
2023-05-24T23:01:15.988Z,73.66
2023-05-24T23:03:42.894Z,73.64
2023-05-24T23:06:12.180Z,74.00
2023-05-24T23:08:39.645Z,73.78
2023-05-24T23:11:13.396Z,73.92
2023-05-24T23:13:42.545Z,74.02
2023-05-24T23:16:09.500Z,74.59
2023-05-24T23:18:37.968Z,75.03
2023-05-24T23:21:04.936Z,75.46
2023-05-24T23:23:31.913Z,75.51
2023-05-24T23:25:58.757Z,75.83
2023-05-24T23:28:25.693Z,75.94
2023-05-24T23:30:53.663Z,76.20
2023-05-24T23:33:20.969Z,75.69
2023-05-24T23:35:47.885Z,76.52
2023-05-24T23:38:15.272Z,77.11
2023-05-24T23:40:42.430Z,76.76
2023-05-24T23:43:09.264Z,76.64
2023-05-24T23:45:36.201Z,76.49
2023-05-24T23:48:03.177Z,76.23
2023-05-24T23:50:35.029Z,76.33
2023-05-24T23:53:06.906Z,76.68
2023-05-24T23:55:33.792Z,77.26
2023-05-24T23:58:00.601Z,77.59
